sensor_id;sensor_type;location;lat;lon;timestamp;pressure;altitude;pressure_sealevel;temperature;humidity
46583;BME280;32309;48.858;8.252;2023-08-17T03:42:51;100289.88;;;20.40;82.95
46583;BME280;32309;48.858;8.252;2023-08-17T03:44:52;100283.59;;;20.41;82.85
46583;BME280;32309;48.858;8.252;2023-08-17T03:46:54;100275.69;;;20.41;82.61
46583;BME280;32309;48.858;8.252;2023-08-17T03:48:55;100280.75;;;20.35;82.54
46583;BME280;32309;48.858;8.252;2023-08-17T03:50:59;100284.97;;;20.27;82.56
46583;BME280;32309;48.858;8.252;2023-08-17T03:53:01;100281.16;;;20.22;83.02
46583;BME280;32309;48.858;8.252;2023-08-17T03:55:01;100291.00;;;20.20;83.19
46583;BME280;32309;48.858;8.252;2023-08-17T03:57:02;100291.44;;;20.15;83.42
46583;BME280;32309;48.858;8.252;2023-08-17T03:59:03;100290.94;;;20.11;83.45
46583;BME280;32309;48.858;8.252;2023-08-17T04:01:03;100288.44;;;20.10;83.04
46583;BME280;32309;48.858;8.252;2023-08-17T04:03:06;100291.09;;;20.10;83.33
46583;BME280;32309;48.858;8.252;2023-08-17T04:05:07;100290.09;;;20.11;83.29
46583;BME280;32309;48.858;8.252;2023-08-17T04:07:07;100296.84;;;20.14;83.70
46583;BME280;32309;48.858;8.252;2023-08-17T04:09:08;100297.38;;;20.17;83.14
46583;BME280;32309;48.858;8.252;2023-08-17T04:11:09;100298.06;;;20.19;82.86
46583;BME280;32309;48.858;8.252;2023-08-17T04:13:09;100297.22;;;20.19;82.97
46583;BME280;32309;48.858;8.252;2023-08-17T04:15:09;100295.72;;;20.16;82.91
46583;BME280;32309;48.858;8.252;2023-08-17T04:17:10;100301.13;;;20.15;83.11
46583;BME280;32309;48.858;8.252;2023-08-17T04:19:11;100309.63;;;20.08;83.48
46583;BME280;32309;48.858;8.252;2023-08-17T04:21:11;100307.31;;;20.05;83.65
46583;BME280;32309;48.858;8.252;2023-08-17T04:23:21;100307.59;;;20.02;83.91
46583;BME280;32309;48.858;8.252;2023-08-17T04:25:27;100307.47;;;20.04;83.77
46583;BME280;32309;48.858;8.252;2023-08-17T04:27:27;100317.66;;;20.07;83.80
46583;BME280;32309;48.858;8.252;2023-08-17T04:29:28;100323.91;;;20.06;83.92
46583;BME280;32309;48.858;8.252;2023-08-17T04:31:31;100322.94;;;20.07;83.63
46583;BME280;32309;48.858;8.252;2023-08-17T04:33:39;100322.13;;;20.06;83.51
46583;BME280;32309;48.858;8.252;2023-08-17T04:35:50;100330.81;;;20.07;83.37
46583;BME280;32309;48.858;8.252;2023-08-17T04:38:02;100333.22;;;20.00;83.94
46583;BME280;32309;48.858;8.252;2023-08-17T04:40:14;100336.69;;;20.01;83.74
46583;BME280;32309;48.858;8.252;2023-08-17T04:42:18;100335.84;;;20.00;82.93
46583;BME280;32309;48.858;8.252;2023-08-17T04:44:20;100330.00;;;20.06;83.32
46583;BME280;32309;48.858;8.252;2023-08-17T04:46:20;100337.91;;;20.06;83.51
46583;BME280;32309;48.858;8.252;2023-08-17T04:48:39;100333.19;;;20.10;83.13
46583;BME280;32309;48.858;8.252;2023-08-17T04:50:42;100341.72;;;20.12;83.08
46583;BME280;32309;48.858;8.252;2023-08-17T04:52:45;100343.41;;;20.13;83.36
46583;BME280;32309;48.858;8.252;2023-08-17T04:54:45;100342.59;;;20.13;83.21
46583;BME280;32309;48.858;8.252;2023-08-17T04:56:46;100341.44;;;20.15;83.28
46583;BME280;32309;48.858;8.252;2023-08-17T04:58:46;100340.19;;;20.19;83.07
46583;BME280;32309;48.858;8.252;2023-08-17T05:11:37;100352.34;;;20.20;83.53
46583;BME280;32309;48.858;8.252;2023-08-17T05:13:37;100344.44;;;20.20;83.56
46583;BME280;32309;48.858;8.252;2023-08-17T05:15:38;100344.16;;;20.23;83.49
46583;BME280;32309;48.858;8.252;2023-08-17T05:17:39;100354.53;;;20.25;82.66
46583;BME280;32309;48.858;8.252;2023-08-17T05:19:39;100358.13;;;20.24;82.34
46583;BME280;32309;48.858;8.252;2023-08-17T05:21:41;100352.72;;;20.25;83.00
46583;BME280;32309;48.858;8.252;2023-08-17T05:23:42;100351.31;;;20.31;82.67
46583;BME280;32309;48.858;8.252;2023-08-17T05:25:45;100352.81;;;20.34;82.25
46583;BME280;32309;48.858;8.252;2023-08-17T05:27:47;100357.47;;;20.22;82.33
46583;BME280;32309;48.858;8.252;2023-08-17T05:29:49;100362.53;;;20.05;83.45
46583;BME280;32309;48.858;8.252;2023-08-17T05:31:58;100359.28;;;19.93;83.61
46583;BME280;32309;48.858;8.252;2023-08-17T05:33:58;100360.56;;;19.89;83.48
46583;BME280;32309;48.858;8.252;2023-08-17T05:35:59;100364.00;;;19.90;83.38
46583;BME280;32309;48.858;8.252;2023-08-17T05:38:08;100374.03;;;19.86;84.64
46583;BME280;32309;48.858;8.252;2023-08-17T05:40:16;100372.75;;;19.90;84.77
46583;BME280;32309;48.858;8.252;2023-08-17T05:42:18;100368.53;;;19.98;84.11
46583;BME280;32309;48.858;8.252;2023-08-17T05:44:21;100369.91;;;20.02;83.85
46583;BME280;32309;48.858;8.252;2023-08-17T05:46:29;100368.63;;;20.06;84.09
46583;BME280;32309;48.858;8.252;2023-08-17T05:48:29;100374.72;;;20.06;83.57
46583;BME280;32309;48.858;8.252;2023-08-17T05:50:30;100374.59;;;20.08;83.26
46583;BME280;32309;48.858;8.252;2023-08-17T05:52:31;100377.22;;;20.08;83.22
46583;BME280;32309;48.858;8.252;2023-08-17T05:54:31;100369.16;;;20.09;83.35
46583;BME280;32309;48.858;8.252;2023-08-17T05:56:32;100365.56;;;20.10;83.49
46583;BME280;32309;48.858;8.252;2023-08-17T05:58:54;100366.09;;;20.14;83.59
46583;BME280;32309;48.858;8.252;2023-08-17T06:00:55;100371.88;;;20.18;83.20
46583;BME280;32309;48.858;8.252;2023-08-17T06:03:04;100370.75;;;20.20;83.46
46583;BME280;32309;48.858;8.252;2023-08-17T06:05:09;100373.63;;;20.27;83.19
46583;BME280;32309;48.858;8.252;2023-08-17T06:07:13;100372.88;;;20.35;83.36
46583;BME280;32309;48.858;8.252;2023-08-17T06:09:14;100372.44;;;20.39;83.35
46583;BME280;32309;48.858;8.252;2023-08-17T06:11:16;100382.66;;;20.42;83.22
46583;BME280;32309;48.858;8.252;2023-08-17T06:13:17;100377.47;;;20.51;83.21
46583;BME280;32309;48.858;8.252;2023-08-17T06:15:17;100375.38;;;20.54;82.95
46583;BME280;32309;48.858;8.252;2023-08-17T06:17:17;100368.97;;;20.57;83.10
46583;BME280;32309;48.858;8.252;2023-08-17T06:19:18;100368.97;;;20.57;83.12
46583;BME280;32309;48.858;8.252;2023-08-17T06:21:18;100367.16;;;20.57;83.18
46583;BME280;32309;48.858;8.252;2023-08-17T06:23:19;100368.81;;;20.58;83.42
46583;BME280;32309;48.858;8.252;2023-08-17T06:25:19;100369.50;;;20.60;83.40
46583;BME280;32309;48.858;8.252;2023-08-17T06:27:19;100370.50;;;20.77;84.10
46583;BME280;32309;48.858;8.252;2023-08-17T06:29:20;100368.66;;;20.96;82.59
46583;BME280;32309;48.858;8.252;2023-08-17T06:31:20;100370.59;;;21.12;82.27
46583;BME280;32309;48.858;8.252;2023-08-17T06:33:20;100364.41;;;21.30;81.61
46583;BME280;32309;48.858;8.252;2023-08-17T06:35:24;100367.81;;;21.48;80.90
46583;BME280;32309;48.858;8.252;2023-08-17T06:37:24;100371.19;;;21.58;80.72
46583;BME280;32309;48.858;8.252;2023-08-17T06:39:24;100372.22;;;21.66;80.19
46583;BME280;32309;48.858;8.252;2023-08-17T06:41:25;100376.56;;;21.75;80.35
46583;BME280;32309;48.858;8.252;2023-08-17T06:43:25;100378.88;;;21.78;80.60
46583;BME280;32309;48.858;8.252;2023-08-17T06:45:26;100376.94;;;21.88;80.19
46583;BME280;32309;48.858;8.252;2023-08-17T06:47:26;100380.56;;;21.87;79.78
46583;BME280;32309;48.858;8.252;2023-08-17T06:49:26;100378.88;;;21.78;80.11
46583;BME280;32309;48.858;8.252;2023-08-17T06:51:27;100382.78;;;21.66;80.12
46583;BME280;32309;48.858;8.252;2023-08-17T06:53:27;100381.53;;;21.52;81.01
46583;BME280;32309;48.858;8.252;2023-08-17T06:55:28;100373.88;;;21.40;81.43
46583;BME280;32309;48.858;8.252;2023-08-17T06:59:42;100372.91;;;21.15;82.55
46583;BME280;32309;48.858;8.252;2023-08-17T07:01:45;100376.47;;;21.06;82.86
46583;BME280;32309;48.858;8.252;2023-08-17T07:03:46;100372.66;;;21.00;83.28
46583;BME280;32309;48.858;8.252;2023-08-17T07:05:47;100370.97;;;20.99;83.06
46583;BME280;32309;48.858;8.252;2023-08-17T07:07:48;100375.22;;;20.92;83.73
46583;BME280;32309;48.858;8.252;2023-08-17T07:09:48;100369.97;;;20.92;83.71
46583;BME280;32309;48.858;8.252;2023-08-17T07:11:49;100369.13;;;20.91;83.95
46583;BME280;32309;48.858;8.252;2023-08-17T07:13:51;100368.28;;;20.91;84.04
46583;BME280;32309;48.858;8.252;2023-08-17T07:15:54;100366.69;;;20.98;83.89
46583;BME280;32309;48.858;8.252;2023-08-17T07:17:54;100374.47;;;21.00;84.25
46583;BME280;32309;48.858;8.252;2023-08-17T07:19:57;100373.47;;;21.01;84.17
46583;BME280;32309;48.858;8.252;2023-08-17T07:21:58;100372.69;;;21.08;84.07
46583;BME280;32309;48.858;8.252;2023-08-17T07:24:11;100378.50;;;21.12;83.53
46583;BME280;32309;48.858;8.252;2023-08-17T07:26:15;100379.78;;;21.08;83.78
46583;BME280;32309;48.858;8.252;2023-08-17T07:28:25;100373.00;;;21.05;84.71
46583;BME280;32309;48.858;8.252;2023-08-17T07:30:25;100373.75;;;21.16;84.16
46583;BME280;32309;48.858;8.252;2023-08-17T07:32:25;100370.03;;;21.26;83.98
46583;BME280;32309;48.858;8.252;2023-08-17T07:34:26;100364.94;;;21.33;83.60
46583;BME280;32309;48.858;8.252;2023-08-17T07:36:26;100370.22;;;21.33;83.43
46583;BME280;32309;48.858;8.252;2023-08-17T07:38:27;100369.72;;;21.38;83.46
46583;BME280;32309;48.858;8.252;2023-08-17T07:40:30;100375.00;;;21.38;83.35
46583;BME280;32309;48.858;8.252;2023-08-17T07:42:30;100382.31;;;21.44;83.30
46583;BME280;32309;48.858;8.252;2023-08-17T07:44:33;100384.63;;;21.47;83.19
46583;BME280;32309;48.858;8.252;2023-08-17T07:46:36;100375.88;;;21.47;83.17
46583;BME280;32309;48.858;8.252;2023-08-17T07:48:38;100378.84;;;21.43;82.75
46583;BME280;32309;48.858;8.252;2023-08-17T07:50:38;100383.28;;;21.43;82.63
46583;BME280;32309;48.858;8.252;2023-08-17T07:52:41;100388.72;;;21.41;82.88
46583;BME280;32309;48.858;8.252;2023-08-17T07:54:44;100386.75;;;21.43;83.11
46583;BME280;32309;48.858;8.252;2023-08-17T07:56:48;100386.13;;;21.50;83.85
46583;BME280;32309;48.858;8.252;2023-08-17T07:58:49;100389.97;;;21.55;83.73
46583;BME280;32309;48.858;8.252;2023-08-17T08:00:49;100388.84;;;21.58;83.72
46583;BME280;32309;48.858;8.252;2023-08-17T08:02:49;100386.50;;;21.55;83.82
46583;BME280;32309;48.858;8.252;2023-08-17T08:04:49;100392.47;;;21.57;84.14
46583;BME280;32309;48.858;8.252;2023-08-17T08:06:50;100390.78;;;21.56;83.95
46583;BME280;32309;48.858;8.252;2023-08-17T08:08:50;100393.72;;;21.53;84.43
46583;BME280;32309;48.858;8.252;2023-08-17T08:10:52;100393.72;;;21.53;84.24
46583;BME280;32309;48.858;8.252;2023-08-17T08:12:55;100387.34;;;21.55;84.40
46583;BME280;32309;48.858;8.252;2023-08-17T08:14:58;100390.47;;;21.59;84.63
46583;BME280;32309;48.858;8.252;2023-08-17T08:16:58;100388.16;;;21.56;84.74
46583;BME280;32309;48.858;8.252;2023-08-17T08:18:59;100391.63;;;21.56;84.82
46583;BME280;32309;48.858;8.252;2023-08-17T08:20:59;100387.03;;;21.58;84.88
46583;BME280;32309;48.858;8.252;2023-08-17T08:22:59;100387.50;;;21.54;85.02
46583;BME280;32309;48.858;8.252;2023-08-17T08:25:00;100398.38;;;21.59;85.10
46583;BME280;32309;48.858;8.252;2023-08-17T08:27:06;100402.69;;;21.60;85.07
46583;BME280;32309;48.858;8.252;2023-08-17T08:29:06;100395.75;;;21.59;85.30
46583;BME280;32309;48.858;8.252;2023-08-17T08:31:07;100396.44;;;21.61;85.36
46583;BME280;32309;48.858;8.252;2023-08-17T08:33:07;100398.72;;;21.56;85.64
46583;BME280;32309;48.858;8.252;2023-08-17T08:35:10;100394.78;;;21.60;85.39
46583;BME280;32309;48.858;8.252;2023-08-17T08:37:10;100395.28;;;21.64;85.52
46583;BME280;32309;48.858;8.252;2023-08-17T08:39:18;100398.91;;;21.63;85.46
46583;BME280;32309;48.858;8.252;2023-08-17T08:41:18;100398.63;;;21.66;85.49
46583;BME280;32309;48.858;8.252;2023-08-17T08:43:22;100394.81;;;21.68;84.96
46583;BME280;32309;48.858;8.252;2023-08-17T08:45:22;100403.06;;;21.73;84.76
46583;BME280;32309;48.858;8.252;2023-08-17T08:47:23;100398.16;;;21.78;84.42
46583;BME280;32309;48.858;8.252;2023-08-17T08:49:26;100403.44;;;21.78;84.52
46583;BME280;32309;48.858;8.252;2023-08-17T08:51:31;100404.09;;;21.81;84.79
46583;BME280;32309;48.858;8.252;2023-08-17T08:53:44;100404.56;;;21.76;84.94
46583;BME280;32309;48.858;8.252;2023-08-17T08:55:51;100403.75;;;21.75;85.08
46583;BME280;32309;48.858;8.252;2023-08-17T08:57:55;100407.22;;;21.76;85.14
46583;BME280;32309;48.858;8.252;2023-08-17T08:59:56;100412.03;;;21.81;85.07
46583;BME280;32309;48.858;8.252;2023-08-17T09:01:57;100404.75;;;21.83;84.94
46583;BME280;32309;48.858;8.252;2023-08-17T09:03:58;100406.59;;;21.90;85.31
46583;BME280;32309;48.858;8.252;2023-08-17T09:05:59;100401.03;;;21.93;84.92
46583;BME280;32309;48.858;8.252;2023-08-17T09:08:00;100406.34;;;22.02;84.80
46583;BME280;32309;48.858;8.252;2023-08-17T09:10:03;100399.13;;;22.12;84.47
46583;BME280;32309;48.858;8.252;2023-08-17T09:12:06;100402.41;;;22.14;84.12
46583;BME280;32309;48.858;8.252;2023-08-17T09:14:08;100394.19;;;22.17;83.97
46583;BME280;32309;48.858;8.252;2023-08-17T09:16:09;100393.50;;;22.23;83.51
46583;BME280;32309;48.858;8.252;2023-08-17T09:18:09;100393.69;;;22.22;83.97
46583;BME280;32309;48.858;8.252;2023-08-17T09:20:10;100394.84;;;22.27;83.08
46583;BME280;32309;48.858;8.252;2023-08-17T09:22:11;100385.00;;;22.38;83.71
46583;BME280;32309;48.858;8.252;2023-08-17T09:24:21;100385.34;;;22.43;83.15
46583;BME280;32309;48.858;8.252;2023-08-17T09:26:22;100374.13;;;22.49;83.37
46583;BME280;32309;48.858;8.252;2023-08-17T09:28:25;100376.78;;;22.49;82.63
46583;BME280;32309;48.858;8.252;2023-08-17T09:30:25;100372.13;;;22.51;82.83
46583;BME280;32309;48.858;8.252;2023-08-17T09:32:29;100380.72;;;22.53;82.57
46583;BME280;32309;48.858;8.252;2023-08-17T09:34:30;100374.63;;;22.53;82.29
46583;BME280;32309;48.858;8.252;2023-08-17T09:36:31;100372.81;;;22.62;82.46
46583;BME280;32309;48.858;8.252;2023-08-17T09:38:36;100369.50;;;22.68;82.34
46583;BME280;32309;48.858;8.252;2023-08-17T09:40:37;100367.53;;;22.78;81.91
46583;BME280;32309;48.858;8.252;2023-08-17T09:42:38;100368.19;;;22.97;81.76
46583;BME280;32309;48.858;8.252;2023-08-17T09:44:38;100366.81;;;23.09;81.49
46583;BME280;32309;48.858;8.252;2023-08-17T09:46:41;100368.84;;;23.15;80.40
46583;BME280;32309;48.858;8.252;2023-08-17T09:48:43;100373.44;;;23.21;80.61
46583;BME280;32309;48.858;8.252;2023-08-17T09:50:45;100372.97;;;23.18;79.79
46583;BME280;32309;48.858;8.252;2023-08-17T09:52:47;100371.28;;;23.25;80.95
46583;BME280;32309;48.858;8.252;2023-08-17T09:54:47;100371.94;;;23.27;80.13
46583;BME280;32309;48.858;8.252;2023-08-17T09:56:48;100368.81;;;23.23;80.07
46583;BME280;32309;48.858;8.252;2023-08-17T09:58:50;100381.72;;;23.18;79.53
46583;BME280;32309;48.858;8.252;2023-08-17T10:00:50;100377.06;;;23.29;79.36
46583;BME280;32309;48.858;8.252;2023-08-17T10:02:51;100383.84;;;23.31;79.12
46583;BME280;32309;48.858;8.252;2023-08-17T10:04:53;100384.69;;;23.23;78.87
46583;BME280;32309;48.858;8.252;2023-08-17T10:07:03;100387.50;;;23.22;79.69
46583;BME280;32309;48.858;8.252;2023-08-17T10:09:05;100385.03;;;23.20;79.75
46583;BME280;32309;48.858;8.252;2023-08-17T10:11:07;100377.28;;;23.19;79.91
46583;BME280;32309;48.858;8.252;2023-08-17T10:13:24;100383.88;;;23.23;79.51
46583;BME280;32309;48.858;8.252;2023-08-17T10:15:38;100381.69;;;23.26;79.40
46583;BME280;32309;48.858;8.252;2023-08-17T10:18:08;100380.53;;;23.29;78.71
46583;BME280;32309;48.858;8.252;2023-08-17T10:20:12;100385.13;;;23.43;79.00
46583;BME280;32309;48.858;8.252;2023-08-17T10:22:31;100387.41;;;23.55;79.05
46583;BME280;32309;48.858;8.252;2023-08-17T10:24:39;100390.69;;;23.65;78.00
46583;BME280;32309;48.858;8.252;2023-08-17T10:26:40;100390.69;;;23.65;77.76
46583;BME280;32309;48.858;8.252;2023-08-17T10:28:44;100386.88;;;23.59;77.53
46583;BME280;32309;48.858;8.252;2023-08-17T10:30:45;100383.44;;;23.59;78.16
46583;BME280;32309;48.858;8.252;2023-08-17T10:32:46;100384.72;;;23.63;77.62
46583;BME280;32309;48.858;8.252;2023-08-17T10:34:47;100389.34;;;23.69;78.20
46583;BME280;32309;48.858;8.252;2023-08-17T10:36:54;100392.09;;;23.84;77.70
46583;BME280;32309;48.858;8.252;2023-08-17T10:41:29;100395.69;;;24.00;76.21
46583;BME280;32309;48.858;8.252;2023-08-17T10:43:33;100387.53;;;24.09;76.20
46583;BME280;32309;48.858;8.252;2023-08-17T10:45:34;100391.31;;;24.15;75.43
46583;BME280;32309;48.858;8.252;2023-08-17T10:47:37;100396.72;;;24.22;75.84
46583;BME280;32309;48.858;8.252;2023-08-17T10:49:38;100391.19;;;24.32;75.03
46583;BME280;32309;48.858;8.252;2023-08-17T10:51:42;100385.69;;;24.41;75.86
46583;BME280;32309;48.858;8.252;2023-08-17T10:54:03;100390.44;;;24.46;74.61
46583;BME280;32309;48.858;8.252;2023-08-17T10:56:10;100383.97;;;24.49;74.80
46583;BME280;32309;48.858;8.252;2023-08-17T10:58:16;100386.50;;;24.42;74.81
46583;BME280;32309;48.858;8.252;2023-08-17T11:00:18;100381.13;;;24.50;74.68
46583;BME280;32309;48.858;8.252;2023-08-17T11:02:33;100388.22;;;24.58;74.00
46583;BME280;32309;48.858;8.252;2023-08-17T11:04:34;100388.88;;;24.60;72.87
46583;BME280;32309;48.858;8.252;2023-08-17T11:06:35;100388.34;;;24.65;73.61
46583;BME280;32309;48.858;8.252;2023-08-17T11:08:38;100385.50;;;24.66;73.60
46583;BME280;32309;48.858;8.252;2023-08-17T11:10:44;100387.94;;;24.76;73.63
46583;BME280;32309;48.858;8.252;2023-08-17T15:30:59;100127.66;;;28.36;58.48
46583;BME280;32309;48.858;8.252;2023-08-17T15:39:37;100125.13;;;28.55;58.18
46583;BME280;32309;48.858;8.252;2023-08-17T15:41:46;100125.31;;;28.60;58.33
46583;BME280;32309;48.858;8.252;2023-08-17T15:47:57;100126.81;;;28.43;58.65
46583;BME280;32309;48.858;8.252;2023-08-17T15:50:46;100135.00;;;28.41;58.57
46583;BME280;32309;48.858;8.252;2023-08-17T16:02:30;100116.41;;;28.21;58.74
46583;BME280;32309;48.858;8.252;2023-08-17T16:05:06;100113.53;;;28.22;58.84
46583;BME280;32309;48.858;8.252;2023-08-17T16:07:19;100113.31;;;28.24;59.33
46583;BME280;32309;48.858;8.252;2023-08-17T16:09:22;100109.03;;;28.30;59.34
46583;BME280;32309;48.858;8.252;2023-08-17T16:17:20;100099.97;;;28.31;58.80
46583;BME280;32309;48.858;8.252;2023-08-17T16:19:23;100097.31;;;28.31;59.13
46583;BME280;32309;48.858;8.252;2023-08-17T16:21:32;100085.63;;;28.32;59.36
46583;BME280;32309;48.858;8.252;2023-08-17T16:23:38;100090.38;;;28.30;59.39
46583;BME280;32309;48.858;8.252;2023-08-17T16:26:24;100089.34;;;28.24;58.99
46583;BME280;32309;48.858;8.252;2023-08-17T16:28:42;100089.16;;;28.19;58.99
46583;BME280;32309;48.858;8.252;2023-08-17T16:30:54;100091.44;;;28.15;58.71
46583;BME280;32309;48.858;8.252;2023-08-17T16:33:04;100099.41;;;28.15;58.71
46583;BME280;32309;48.858;8.252;2023-08-17T16:35:09;100098.00;;;28.13;58.96
46583;BME280;32309;48.858;8.252;2023-08-17T16:37:21;100097.59;;;28.09;59.34
46583;BME280;32309;48.858;8.252;2023-08-17T16:42:50;100103.50;;;27.98;60.17
46583;BME280;32309;48.858;8.252;2023-08-17T16:45:28;100103.09;;;28.01;60.02
46583;BME280;32309;48.858;8.252;2023-08-17T16:47:34;100112.91;;;28.00;60.05
46583;BME280;32309;48.858;8.252;2023-08-17T16:58:05;100124.63;;;27.99;60.21
46583;BME280;32309;48.858;8.252;2023-08-17T17:00:46;100134.25;;;27.94;60.57
46583;BME280;32309;48.858;8.252;2023-08-17T17:02:46;100126.88;;;27.89;60.92
46583;BME280;32309;48.858;8.252;2023-08-17T17:04:47;100136.09;;;27.93;60.59
46583;BME280;32309;48.858;8.252;2023-08-17T17:06:47;100136.31;;;27.85;60.66
46583;BME280;32309;48.858;8.252;2023-08-17T17:08:47;100141.81;;;27.77;60.76
46583;BME280;32309;48.858;8.252;2023-08-17T17:11:00;100143.47;;;27.78;60.34
46583;BME280;32309;48.858;8.252;2023-08-17T17:13:13;100138.34;;;27.63;60.88
46583;BME280;32309;48.858;8.252;2023-08-17T17:15:36;100137.50;;;27.49;61.65
46583;BME280;32309;48.858;8.252;2023-08-17T17:18:42;100142.81;;;27.42;62.29
46583;BME280;32309;48.858;8.252;2023-08-17T17:22:58;100139.69;;;27.25;63.16
46583;BME280;32309;48.858;8.252;2023-08-17T17:25:14;100147.84;;;27.17;63.72
46583;BME280;32309;48.858;8.252;2023-08-17T17:27:14;100152.38;;;27.16;64.07
46583;BME280;32309;48.858;8.252;2023-08-17T17:29:14;100152.38;;;27.16;64.42
46583;BME280;32309;48.858;8.252;2023-08-17T17:31:20;100155.84;;;27.17;64.24
46583;BME280;32309;48.858;8.252;2023-08-17T17:33:20;100154.59;;;27.13;64.24
46583;BME280;32309;48.858;8.252;2023-08-17T17:35:20;100152.53;;;27.08;64.44
46583;BME280;32309;48.858;8.252;2023-08-17T17:39:47;100153.53;;;26.94;64.64
46583;BME280;32309;48.858;8.252;2023-08-17T17:44:40;100156.34;;;26.85;64.80
46583;BME280;32309;48.858;8.252;2023-08-17T17:46:40;100162.28;;;26.81;64.79
46583;BME280;32309;48.858;8.252;2023-08-17T17:48:40;100156.72;;;26.76;64.96
46583;BME280;32309;48.858;8.252;2023-08-17T17:50:40;100168.16;;;26.76;65.05
46583;BME280;32309;48.858;8.252;2023-08-17T17:52:43;100159.78;;;26.72;65.17
46583;BME280;32309;48.858;8.252;2023-08-17T17:54:44;100159.94;;;26.71;65.33
46583;BME280;32309;48.858;8.252;2023-08-17T17:56:44;100160.78;;;26.71;64.80
46583;BME280;32309;48.858;8.252;2023-08-17T17:58:50;100154.59;;;26.71;64.13
46583;BME280;32309;48.858;8.252;2023-08-17T18:00:50;100155.59;;;26.63;64.00
46583;BME280;32309;48.858;8.252;2023-08-17T18:02:53;100158.84;;;26.58;64.42
46583;BME280;32309;48.858;8.252;2023-08-17T18:04:53;100160.25;;;26.54;64.42
46583;BME280;32309;48.858;8.252;2023-08-17T18:06:56;100159.63;;;26.52;64.40
46583;BME280;32309;48.858;8.252;2023-08-17T18:08:58;100150.59;;;26.47;64.75
46583;BME280;32309;48.858;8.252;2023-08-17T18:11:01;100158.53;;;26.40;64.92
46583;BME280;32309;48.858;8.252;2023-08-17T18:13:01;100158.94;;;26.37;65.32
46583;BME280;32309;48.858;8.252;2023-08-17T18:15:04;100150.53;;;26.33;65.67
46583;BME280;32309;48.858;8.252;2023-08-17T18:17:05;100160.31;;;26.33;65.81
46583;BME280;32309;48.858;8.252;2023-08-17T18:19:23;100158.25;;;26.28;66.05
46583;BME280;32309;48.858;8.252;2023-08-17T18:21:24;100154.16;;;26.26;66.44
46583;BME280;32309;48.858;8.252;2023-08-17T18:23:24;100157.22;;;26.22;66.71
46583;BME280;32309;48.858;8.252;2023-08-17T18:25:25;100151.03;;;26.15;66.77
46583;BME280;32309;48.858;8.252;2023-08-17T18:27:26;100162.03;;;26.12;66.99
46583;BME280;32309;48.858;8.252;2023-08-17T18:29:26;100153.03;;;26.06;67.21
46583;BME280;32309;48.858;8.252;2023-08-17T18:31:28;100159.66;;;26.02;67.56
46583;BME280;32309;48.858;8.252;2023-08-17T18:33:29;100148.19;;;25.95;68.03
46583;BME280;32309;48.858;8.252;2023-08-17T18:35:32;100161.03;;;25.91;68.24
46583;BME280;32309;48.858;8.252;2023-08-17T18:37:57;100158.13;;;25.86;68.92
46583;BME280;32309;48.858;8.252;2023-08-17T18:40:08;100156.66;;;25.84;68.97
46583;BME280;32309;48.858;8.252;2023-08-17T18:42:15;100159.72;;;25.81;69.14
46583;BME280;32309;48.858;8.252;2023-08-17T18:44:15;100160.38;;;25.83;69.19
46583;BME280;32309;48.858;8.252;2023-08-17T18:46:15;100159.31;;;25.84;69.23
46583;BME280;32309;48.858;8.252;2023-08-17T18:48:26;100163.38;;;25.80;69.42
46583;BME280;32309;48.858;8.252;2023-08-17T20:18:08;100189.66;;;24.41;77.33
46583;BME280;32309;48.858;8.252;2023-08-17T20:20:11;100193.94;;;24.42;77.46
46583;BME280;32309;48.858;8.252;2023-08-17T20:22:15;100196.31;;;24.37;77.74
46583;BME280;32309;48.858;8.252;2023-08-17T20:24:15;100190.56;;;24.34;77.63
46583;BME280;32309;48.858;8.252;2023-08-17T20:26:16;100182.78;;;24.32;77.67
46583;BME280;32309;48.858;8.252;2023-08-17T20:28:17;100194.75;;;24.28;77.97
46583;BME280;32309;48.858;8.252;2023-08-17T20:30:19;100193.47;;;24.24;78.75
46583;BME280;32309;48.858;8.252;2023-08-17T20:32:20;100195.09;;;24.25;79.39
46583;BME280;32309;48.858;8.252;2023-08-17T20:34:23;100197.06;;;24.31;79.09
46583;BME280;32309;48.858;8.252;2023-08-17T20:36:23;100193.84;;;24.36;78.03
46583;BME280;32309;48.858;8.252;2023-08-17T20:38:26;100194.69;;;24.36;77.83
46583;BME280;32309;48.858;8.252;2023-08-17T20:40:32;100196.03;;;24.32;78.32
